createdAt,value
2019-04-21T00:01:55.971Z,14.00
2019-04-21T00:04:40.780Z,14.20
2019-04-21T00:07:14.380Z,13.77
2019-04-21T00:09:45.601Z,13.70
2019-04-21T00:12:15.470Z,14.47
2019-04-21T00:14:34.980Z,14.10
2019-04-21T00:16:58.041Z,13.60
2019-04-21T00:19:36.798Z,14.33
2019-04-21T00:22:14.943Z,12.47
2019-04-21T00:24:46.149Z,11.87
2019-04-21T00:27:21.654Z,12.43
2019-04-21T00:29:49.699Z,11.60
2019-04-21T00:32:15.041Z,10.83
2019-04-21T00:34:30.191Z,10.93
2019-04-21T00:37:11.024Z,11.93
2019-04-21T00:39:58.256Z,11.00
2019-04-21T00:42:14.164Z,10.80
2019-04-21T00:44:36.720Z,11.97
2019-04-21T00:47:15.665Z,11.83
2019-04-21T00:49:43.176Z,11.50
2019-04-21T00:52:42.630Z,11.93
2019-04-21T00:55:12.259Z,11.37
2019-04-21T00:57:36.750Z,11.50
2019-04-21T01:00:00.930Z,12.23
2019-04-21T01:02:36.442Z,12.60
2019-04-21T01:05:00.062Z,10.93
2019-04-21T01:07:26.579Z,12.13
2019-04-21T01:09:49.052Z,12.30
2019-04-21T01:12:26.953Z,11.70
2019-04-21T01:14:56.550Z,12.27
2019-04-21T01:17:23.205Z,11.27
2019-04-21T01:19:46.861Z,11.50
2019-04-21T01:22:01.348Z,13.63
2019-04-21T01:24:34.704Z,13.03
2019-04-21T01:27:10.704Z,11.27
2019-04-21T01:29:47.625Z,10.97
2019-04-21T01:32:23.702Z,10.10
2019-04-21T01:34:45.389Z,10.33
2019-04-21T01:37:12.797Z,11.30
2019-04-21T01:39:50.429Z,8.87
2019-04-21T01:42:18.861Z,9.87
2019-04-21T01:44:46.197Z,9.33
2019-04-21T01:47:13.167Z,9.87
2019-04-21T01:49:34.525Z,9.43
2019-04-21T01:55:00.412Z,8.90
2019-04-21T01:57:52.646Z,9.17
2019-04-21T02:00:23.459Z,8.27
2019-04-21T02:03:09.899Z,8.60
2019-04-21T02:05:34.574Z,8.30
2019-04-21T02:07:54.676Z,8.40
2019-04-21T02:10:34.302Z,8.60
2019-04-21T02:12:56.862Z,8.80
2019-04-21T02:15:30.526Z,8.77
2019-04-21T02:17:54.073Z,8.77
2019-04-21T02:20:17.979Z,8.90
2019-04-21T02:23:10.057Z,8.67
2019-04-21T02:25:25.841Z,8.70
2019-04-21T02:27:57.716Z,8.90
2019-04-21T02:30:36.806Z,9.80
2019-04-21T02:33:13.719Z,9.67
2019-04-21T02:35:39.982Z,8.70
2019-04-21T02:38:12.167Z,9.70
2019-04-21T02:45:29.745Z,10.17
2019-04-21T02:48:04.100Z,9.37
2019-04-21T02:50:31.714Z,8.63
2019-04-21T02:55:31.276Z,9.77
2019-04-21T02:58:06.213Z,8.37
2019-04-21T03:00:31.552Z,8.83
2019-04-21T03:03:19.649Z,8.20
2019-04-21T03:08:43.049Z,9.20
2019-04-21T03:16:23.558Z,9.10
2019-04-21T03:18:40.469Z,9.47
2019-04-21T03:21:10.843Z,8.77
2019-04-21T03:26:10.310Z,9.23
2019-04-21T03:28:37.401Z,9.60
2019-04-21T03:40:57.278Z,9.20
2019-04-21T03:43:31.699Z,8.40
2019-04-21T03:48:38.538Z,8.53
2019-04-21T03:50:59.368Z,8.33
2019-04-21T03:53:34.046Z,9.07
2019-04-21T03:58:37.446Z,8.60
2019-04-21T04:04:15.059Z,9.50
2019-04-21T04:06:43.188Z,9.33
2019-04-21T04:11:45.741Z,8.73
2019-04-21T04:16:50.166Z,7.93
2019-04-21T04:19:09.073Z,7.50
2019-04-21T04:24:13.002Z,7.90
2019-04-21T04:26:39.572Z,7.63
2019-04-21T04:39:43.026Z,7.77
2019-04-21T04:42:26.688Z,8.47
2019-04-21T04:44:54.253Z,7.97
2019-04-21T04:47:16.767Z,8.47
2019-04-21T04:49:47.968Z,7.87
2019-04-21T04:54:46.936Z,8.70
2019-04-21T04:57:16.391Z,7.73
2019-04-21T04:59:42.512Z,7.83
2019-04-21T05:07:07.160Z,8.07
2019-04-21T05:09:39.294Z,8.37
2019-04-21T05:12:15.808Z,7.70
2019-04-21T05:14:41.106Z,8.37
2019-04-21T05:17:03.915Z,8.27
2019-04-21T05:19:39.010Z,8.47
2019-04-21T05:22:05.730Z,9.10
2019-04-21T05:24:24.095Z,8.33
2019-04-21T05:26:55.426Z,8.30
2019-04-21T05:29:55.690Z,6.57
2019-04-21T05:32:26.468Z,8.70
2019-04-21T05:35:06.072Z,8.63
2019-04-21T05:37:47.655Z,8.63
2019-04-21T05:40:21.043Z,8.03
2019-04-21T05:42:51.046Z,9.17
2019-04-21T05:45:29.790Z,8.60
2019-04-21T05:48:24.286Z,8.90
2019-04-21T05:50:38.021Z,8.10
2019-04-21T05:53:18.977Z,8.83
2019-04-21T05:55:43.502Z,9.03
2019-04-21T05:58:08.641Z,8.97
2019-04-21T06:01:06.371Z,9.53
2019-04-21T06:03:23.134Z,8.27
2019-04-21T06:06:00.321Z,8.43
2019-04-21T06:08:18.761Z,8.47
2019-04-21T06:13:26.585Z,8.57
2019-04-21T06:18:21.843Z,8.77
2019-04-21T06:20:48.773Z,9.13
2019-04-21T06:23:18.113Z,7.93
2019-04-21T06:25:55.216Z,8.50
2019-04-21T06:28:19.193Z,8.33
2019-04-21T06:30:57.986Z,9.20
2019-04-21T06:33:15.389Z,8.37
2019-04-21T06:36:23.568Z,9.10
2019-04-21T06:44:01.350Z,8.33
2019-04-21T06:46:30.824Z,8.23
2019-04-21T06:48:55.509Z,7.90
2019-04-21T06:51:24.085Z,8.50
2019-04-21T06:53:59.584Z,8.07
2019-04-21T06:56:25.237Z,8.37
2019-04-21T06:58:53.467Z,8.30
2019-04-21T07:01:24.083Z,8.07
2019-04-21T07:04:03.597Z,8.90
2019-04-21T07:06:24.579Z,7.97
2019-04-21T07:09:10.153Z,7.67
2019-04-21T07:11:14.776Z,7.67
2019-04-21T07:13:50.050Z,7.80
2019-04-21T07:16:18.727Z,7.83
2019-04-21T07:18:51.354Z,8.03
2019-04-21T07:21:15.836Z,8.03
2019-04-21T07:23:47.262Z,7.03
2019-04-21T07:26:10.436Z,6.80
2019-04-21T07:28:47.966Z,7.67
2019-04-21T07:31:17.857Z,6.70
2019-04-21T07:33:54.129Z,7.47
2019-04-21T07:36:15.976Z,7.00
2019-04-21T07:38:41.156Z,7.27
2019-04-21T07:41:02.593Z,7.57
2019-04-21T07:43:34.365Z,7.13
2019-04-21T07:46:02.713Z,7.27
2019-04-21T07:48:43.175Z,7.43
2019-04-21T07:51:33.873Z,6.83
2019-04-21T07:54:06.299Z,6.63
2019-04-21T07:56:12.135Z,6.37
2019-04-21T07:58:58.882Z,6.33
2019-04-21T08:01:30.793Z,5.87
2019-04-21T08:03:58.150Z,6.40
2019-04-21T08:06:27.036Z,6.33
2019-04-21T08:08:52.823Z,6.90
2019-04-21T08:11:23.566Z,7.73
2019-04-21T08:16:28.465Z,7.50
2019-04-21T08:18:55.766Z,8.93
2019-04-21T08:21:20.735Z,8.60
2019-04-21T08:23:47.959Z,8.57
2019-04-21T08:26:26.148Z,7.67
2019-04-21T08:28:56.377Z,7.70
2019-04-21T08:31:27.994Z,7.93
2019-04-21T08:33:56.442Z,8.00
2019-04-21T08:36:24.558Z,7.80
2019-04-21T08:38:48.179Z,7.93
2019-04-21T08:41:18.453Z,8.10
2019-04-21T08:43:51.346Z,7.97
2019-04-21T08:46:19.495Z,7.90
2019-04-21T08:48:53.946Z,8.33
2019-04-21T08:51:27.521Z,9.27
2019-04-21T08:53:47.559Z,8.43
2019-04-21T08:56:21.511Z,8.10
2019-04-21T08:59:19.271Z,8.03
2019-04-21T09:02:07.640Z,6.37
2019-04-21T09:04:33.693Z,7.03
2019-04-21T09:07:28.747Z,7.07
2019-04-21T09:09:42.682Z,6.50
2019-04-21T09:12:04.405Z,6.90
2019-04-21T09:14:37.023Z,6.80
2019-04-21T09:17:03.314Z,6.57
2019-04-21T09:19:44.281Z,6.47
2019-04-21T09:22:01.921Z,6.43
2019-04-21T09:24:33.401Z,6.83
2019-04-21T09:27:02.095Z,7.00
2019-04-21T09:29:24.434Z,6.13
2019-04-21T09:31:46.021Z,5.63
2019-04-21T09:34:20.638Z,6.17
2019-04-21T09:36:46.761Z,5.17
2019-04-21T09:39:17.962Z,5.50
2019-04-21T09:41:42.662Z,5.00
2019-04-21T09:44:18.495Z,5.60
2019-04-21T09:46:45.336Z,5.57
2019-04-21T09:49:13.533Z,5.90
2019-04-21T09:51:39.585Z,4.73
2019-04-21T09:54:13.603Z,4.90
2019-04-21T09:56:45.442Z,4.80
2019-04-21T09:59:12.211Z,4.43
2019-04-21T10:01:49.123Z,4.90
2019-04-21T10:04:05.838Z,4.37
2019-04-21T10:06:33.432Z,5.33
2019-04-21T10:09:04.223Z,4.70
2019-04-21T10:11:31.109Z,4.97
2019-04-21T10:13:58.916Z,5.10
2019-04-21T10:16:36.443Z,4.70
2019-04-21T10:19:04.651Z,5.00
2019-04-21T10:21:33.839Z,4.40
2019-04-21T10:24:02.052Z,4.97
2019-04-21T10:26:30.543Z,5.20
2019-04-21T10:29:05.722Z,4.97
2019-04-21T10:31:28.922Z,4.57
2019-04-21T10:33:56.514Z,4.30
2019-04-21T10:36:24.863Z,4.80
2019-04-21T10:38:54.001Z,4.70
2019-04-21T10:41:21.797Z,4.00
2019-04-21T10:43:53.376Z,4.40
2019-04-21T10:46:22.197Z,4.13
2019-04-21T10:48:50.638Z,4.47
2019-04-21T10:51:19.041Z,4.20
2019-04-21T10:53:52.344Z,4.87
2019-04-21T10:56:25.025Z,4.40
2019-04-21T10:58:49.913Z,3.70
2019-04-21T11:01:20.913Z,2.93
2019-04-21T11:04:19.530Z,3.50
2019-04-21T11:06:40.668Z,3.80
2019-04-21T11:09:10.504Z,4.50
2019-04-21T11:11:39.621Z,4.30
2019-04-21T11:14:08.623Z,4.50
2019-04-21T11:16:37.235Z,4.33
2019-04-21T11:19:06.206Z,4.40
2019-04-21T11:21:34.620Z,3.93
2019-04-21T11:24:03.794Z,4.50
2019-04-21T11:26:31.836Z,4.67
2019-04-21T11:29:00.786Z,4.33
2019-04-21T11:31:29.223Z,3.83
2019-04-21T11:33:57.585Z,4.50
2019-04-21T13:58:18.028Z,3.63
2019-04-21T22:30:58.976Z,4.20
2019-04-21T22:33:31.239Z,4.40
2019-04-21T22:36:05.435Z,13.87
2019-04-21T22:38:40.891Z,4.87
2019-04-21T22:41:10.112Z,4.57
2019-04-21T22:43:32.916Z,4.83
2019-04-21T22:45:55.722Z,4.57
2019-04-21T22:48:28.182Z,4.77
2019-04-21T22:50:52.990Z,4.73
2019-04-21T22:53:21.420Z,4.87
2019-04-21T22:55:58.730Z,4.83
2019-04-21T22:58:25.761Z,5.00
2019-04-21T23:00:54.663Z,4.67
2019-04-21T23:03:21.338Z,5.20
2019-04-21T23:05:50.035Z,5.20
2019-04-21T23:08:17.213Z,5.20
2019-04-21T23:10:49.668Z,5.20
2019-04-21T23:13:18.278Z,5.60
2019-04-21T23:15:51.202Z,4.90
2019-04-21T23:18:30.491Z,4.67
2019-04-21T23:21:03.487Z,4.53
2019-04-21T23:23:37.090Z,4.40
2019-04-21T23:25:55.997Z,4.53
2019-04-21T23:28:34.571Z,4.00
2019-04-21T23:31:01.090Z,4.40
2019-04-21T23:33:15.509Z,4.17
2019-04-21T23:35:43.705Z,4.47
2019-04-21T23:38:12.074Z,4.27
2019-04-21T23:40:46.203Z,4.37
2019-04-21T23:43:14.862Z,4.50
2019-04-21T23:45:41.318Z,4.33
2019-04-21T23:48:18.579Z,4.50
2019-04-21T23:50:47.040Z,4.67
2019-04-21T23:53:05.767Z,4.90
2019-04-21T23:55:33.288Z,4.37
2019-04-21T23:58:07.145Z,5.00
